Time;durP1;ratioP1;P1;durP2;ratioP2;P2;SDS_P1;SDS_P2;PMS_P1;PMS_P2;Temp;Humidity;BMP_temperature;BMP_pressure;BME280_temperature;BME280_humidity;BME280_pressure;Samples;Min_cycle;Max_cycle;Signal;HPM_P1;HPM_P2
2023/01/07 00:00:15;;;;;;;52.00;28.17;;;9.50;99.90;;;;;;6030656;23;20031;-89
2023/01/07 00:02:41;;;;;;;51.17;27.02;;;9.60;99.90;;;;;;6054108;23;20057;-88
2023/01/07 00:05:08;;;;;;;56.67;28.83;;;9.60;99.90;;;;;;6031657;23;20015;-89
2023/01/07 00:07:33;;;;;;;54.38;29.05;;;9.60;99.90;;;;;;6029400;23;20011;-89
2023/01/07 00:09:59;;;;;;;51.05;27.70;;;9.70;99.90;;;;;;6055254;23;20404;-88
2023/01/07 00:12:24;;;;;;;55.53;29.75;;;9.70;99.90;;;;;;6030765;23;20042;-89
2023/01/07 00:14:50;;;;;;;52.55;28.25;;;9.70;99.90;;;;;;6032093;23;20025;-89
2023/01/07 00:17:16;;;;;;;53.50;29.23;;;9.80;99.90;;;;;;6030319;23;20038;-89
2023/01/07 00:19:41;;;;;;;51.88;28.10;;;9.80;99.90;;;;;;6056322;23;20037;-89
2023/01/07 00:22:10;;;;;;;50.78;28.63;;;9.90;99.90;;;;;;6029093;23;20019;-88
2023/01/07 00:24:36;;;;;;;52.78;28.23;;;9.90;99.90;;;;;;6054946;23;20023;-88
2023/01/07 00:27:01;;;;;;;43.70;25.75;;;10.00;99.90;;;;;;6055295;23;20015;-90
2023/01/07 00:29:27;;;;;;;46.65;26.13;;;10.00;99.90;;;;;;6053910;23;20015;-89
2023/01/07 00:31:52;;;;;;;44.92;24.85;;;10.00;99.90;;;;;;6029044;23;20590;-88
2023/01/07 00:34:22;;;;;;;49.13;27.52;;;10.10;99.90;;;;;;6055340;23;20464;-87
2023/01/07 00:36:48;;;;;;;49.50;26.63;;;10.10;99.90;;;;;;6029800;23;20406;-90
2023/01/07 00:39:18;;;;;;;46.80;26.52;;;10.20;99.90;;;;;;6054257;23;20543;-89
2023/01/07 00:44:29;;;;;;;48.15;26.02;;;10.20;99.90;;;;;;6078762;23;20026;-91
2023/01/07 00:46:58;;;;;;;49.05;26.25;;;10.30;99.90;;;;;;6030611;23;20010;-89
2023/01/07 00:49:25;;;;;;;49.58;25.02;;;10.30;99.90;;;;;;6055103;23;20018;-89
2023/01/07 00:51:51;;;;;;;46.72;24.27;;;10.30;99.90;;;;;;6030227;23;20030;-89
2023/01/07 00:54:17;;;;;;;47.38;24.75;;;10.40;99.90;;;;;;6030691;23;20033;-89
2023/01/07 00:56:43;;;;;;;43.70;23.83;;;10.40;99.90;;;;;;6030082;23;20020;-90
2023/01/07 00:59:08;;;;;;;40.47;23.85;;;10.40;99.90;;;;;;6055640;23;20239;-89
2023/01/07 01:01:34;;;;;;;41.75;23.27;;;10.40;99.90;;;;;;6054211;23;20022;-89
2023/01/07 01:04:00;;;;;;;43.78;22.85;;;10.50;99.90;;;;;;6030589;23;20026;-90
2023/01/07 01:06:25;;;;;;;45.40;23.80;;;10.50;99.90;;;;;;6030427;23;20030;-92
2023/01/07 01:08:51;;;;;;;39.88;23.67;;;10.50;99.90;;;;;;6053451;23;20014;-90
2023/01/07 01:11:17;;;;;;;45.83;24.73;;;10.60;99.90;;;;;;6031375;23;20015;-87
2023/01/07 01:13:44;;;;;;;41.03;23.00;;;10.60;99.90;;;;;;6031977;23;20030;-89
2023/01/07 01:16:13;;;;;;;43.53;23.83;;;10.60;99.90;;;;;;6030856;23;20453;-89
2023/01/07 01:18:43;;;;;;;42.15;23.40;;;10.60;99.90;;;;;;6032177;23;20078;-89
2023/01/07 01:21:12;;;;;;;43.90;23.38;;;10.60;99.90;;;;;;6030698;23;20019;-90
2023/01/07 01:23:38;;;;;;;45.20;23.73;;;10.60;99.90;;;;;;6030434;23;20094;-90
2023/01/07 01:26:06;;;;;;;51.65;24.52;;;10.60;99.90;;;;;;6031456;23;20015;-89
2023/01/07 01:28:32;;;;;;;40.47;23.40;;;10.70;99.90;;;;;;6031269;23;20042;-89
2023/01/07 01:30:58;;;;;;;46.75;24.05;;;10.70;99.90;;;;;;6031361;23;20110;-88
2023/01/07 01:33:24;;;;;;;37.10;21.85;;;10.70;99.90;;;;;;6029642;23;20528;-89
2023/01/07 01:35:49;;;;;;;41.80;22.27;;;10.80;99.90;;;;;;6030936;23;20022;-90
2023/01/07 01:38:15;;;;;;;36.85;21.95;;;10.80;99.90;;;;;;6029893;23;20026;-89
2023/01/07 01:40:40;;;;;;;34.00;21.10;;;10.80;99.90;;;;;;6054135;23;20019;-90
2023/01/07 01:43:31;;;;;;;35.13;21.80;;;10.90;99.90;;;;;;6054844;23;20357;-89
2023/01/07 01:46:24;;;;;;;40.25;22.67;;;10.90;99.90;;;;;;6031731;23;20103;-89
2023/01/07 01:49:03;;;;;;;38.50;21.67;;;10.90;99.90;;;;;;6031125;23;20018;-89
2023/01/07 01:51:33;;;;;;;38.13;22.27;;;10.90;99.90;;;;;;6031489;23;20014;-89
2023/01/07 01:54:06;;;;;;;41.05;23.13;;;10.90;99.90;;;;;;6030581;23;20051;-90
2023/01/07 01:56:34;;;;;;;40.40;23.63;;;10.90;99.90;;;;;;6030154;23;20022;-89
2023/01/07 01:59:04;;;;;;;40.00;23.33;;;10.90;99.90;;;;;;6031693;23;20106;-89
2023/01/07 02:01:33;;;;;;;41.28;23.13;;;10.90;99.90;;;;;;6053989;23;20029;-90
2023/01/07 02:04:10;;;;;;;38.88;23.63;;;11.00;99.90;;;;;;6031862;23;20416;-89
2023/01/07 02:06:45;;;;;;;36.65;23.15;;;11.00;99.90;;;;;;6030916;23;20058;-90
2023/01/07 02:09:12;;;;;;;39.75;24.25;;;11.00;99.90;;;;;;6031822;23;20026;-91
2023/01/07 02:11:56;;;;;;;40.85;24.38;;;11.00;99.90;;;;;;6056555;23;20014;-91
2023/01/07 02:14:43;;;;;;;37.95;23.20;;;11.00;99.90;;;;;;6033816;23;20103;-90
2023/01/07 02:17:18;;;;;;;39.60;24.98;;;11.00;99.90;;;;;;6032895;23;20026;-89
2023/01/07 02:20:06;;;;;;;39.97;24.30;;;11.10;99.90;;;;;;6033859;23;20031;-90
2023/01/07 02:22:43;;;;;;;37.50;24.05;;;11.10;99.90;;;;;;6030928;23;20022;-89
2023/01/07 02:25:26;;;;;;;39.05;25.33;;;11.10;99.90;;;;;;6033679;23;20082;-92
2023/01/07 02:28:07;;;;;;;33.80;23.85;;;11.10;99.90;;;;;;6032684;23;20401;-88
2023/01/07 02:31:06;;;;;;;37.38;24.08;;;11.10;99.90;;;;;;6033455;23;20528;-90
2023/01/07 02:33:57;;;;;;;36.67;23.85;;;11.10;99.90;;;;;;6032659;23;20023;-89
2023/01/07 02:36:47;;;;;;;35.50;23.52;;;11.10;99.90;;;;;;6032036;23;20023;-89
2023/01/07 02:39:25;;;;;;;33.53;23.08;;;11.10;99.90;;;;;;6031982;23;20019;-88
2023/01/07 02:41:56;;;;;;;34.72;24.38;;;11.10;99.90;;;;;;6032101;23;20479;-90
2023/01/07 02:44:26;;;;;;;38.92;24.98;;;11.20;99.90;;;;;;6033308;23;20051;-89
2023/01/07 02:47:08;;;;;;;31.20;22.77;;;11.10;99.90;;;;;;6033618;23;20019;-88
2023/01/07 02:49:34;;;;;;;33.60;23.88;;;11.20;99.90;;;;;;6032833;23;20516;-89
2023/01/07 02:52:23;;;;;;;32.30;24.52;;;11.20;99.90;;;;;;6030894;23;20159;-90
2023/01/07 02:54:58;;;;;;;35.33;24.30;;;11.20;99.90;;;;;;6057318;23;20018;-89
2023/01/07 02:57:36;;;;;;;33.50;23.92;;;11.20;99.90;;;;;;6031785;23;20069;-91
2023/01/07 03:00:14;;;;;;;33.80;23.90;;;11.20;99.90;;;;;;6031832;23;20420;-90
2023/01/07 03:03:13;;;;;;;30.88;22.73;;;11.20;99.90;;;;;;6030665;23;20116;-90
2023/01/07 03:06:11;;;;;;;31.15;23.40;;;11.20;99.90;;;;;;6032893;23;20751;-89
2023/01/07 03:09:09;;;;;;;32.20;23.23;;;11.20;99.90;;;;;;6055250;23;20021;-89
2023/01/07 03:11:48;;;;;;;30.95;23.65;;;11.10;99.90;;;;;;6031973;23;20037;-89
2023/01/07 03:14:18;;;;;;;32.72;22.77;;;11.10;99.90;;;;;;6056497;23;20212;-90
2023/01/07 03:16:53;;;;;;;33.33;24.48;;;11.10;99.90;;;;;;6032239;23;20022;-89
2023/01/07 03:19:27;;;;;;;30.55;23.58;;;11.10;99.90;;;;;;6032782;23;20125;-89
2023/01/07 03:21:58;;;;;;;32.83;24.05;;;11.10;99.90;;;;;;6032589;23;20027;-92
2023/01/07 03:24:26;;;;;;;30.73;23.25;;;11.10;99.90;;;;;;6031454;23;20266;-89
2023/01/07 03:26:56;;;;;;;28.48;22.48;;;11.10;99.90;;;;;;6055988;23;20074;-89
2023/01/07 03:29:22;;;;;;;29.50;22.65;;;11.00;99.90;;;;;;6056454;23;20015;-89
2023/01/07 03:32:14;;;;;;;26.52;21.65;;;11.10;99.90;;;;;;6032341;23;20023;-89
2023/01/07 03:34:41;;;;;;;29.42;21.92;;;11.00;99.90;;;;;;6032466;23;20491;-90
2023/01/07 03:37:14;;;;;;;28.58;22.23;;;11.10;99.90;;;;;;6053928;23;20019;-89
2023/01/07 03:39:45;;;;;;;30.52;22.13;;;11.00;99.90;;;;;;6032007;23;20094;-90
2023/01/07 03:45:11;;;;;;;29.48;21.73;;;11.00;99.90;;;;;;6079544;23;20507;-89
2023/01/07 03:47:40;;;;;;;25.00;20.73;;;11.00;99.90;;;;;;6055165;23;20015;-89
2023/01/07 03:50:06;;;;;;;28.50;22.10;;;11.00;99.90;;;;;;6032356;23;20019;-90
2023/01/07 03:52:32;;;;;;;28.58;22.35;;;11.00;99.90;;;;;;6029262;23;20046;-91
2023/01/07 03:54:57;;;;;;;24.20;20.25;;;11.00;99.90;;;;;;6032853;23;20042;-90
2023/01/07 03:57:23;;;;;;;26.23;21.42;;;11.00;99.90;;;;;;6032410;23;20018;-89
2023/01/07 03:59:48;;;;;;;27.90;21.73;;;11.00;99.90;;;;;;6056577;23;20018;-90
2023/01/07 04:02:14;;;;;;;25.20;20.38;;;11.00;99.90;;;;;;6054930;23;20027;-88
2023/01/07 04:04:43;;;;;;;27.15;21.10;;;10.90;99.90;;;;;;6056143;23;20086;-90
2023/01/07 04:07:09;;;;;;;26.00;20.65;;;11.00;99.90;;;;;;6031361;23;20416;-90
2023/01/07 04:09:38;;;;;;;28.98;21.35;;;10.90;99.90;;;;;;6032701;23;20022;-91
2023/01/07 04:12:03;;;;;;;23.98;19.60;;;10.90;99.90;;;;;;6031787;23;20025;-90
2023/01/07 04:14:29;;;;;;;25.10;20.42;;;10.90;99.90;;;;;;6032332;23;20073;-88
2023/01/07 04:16:55;;;;;;;24.17;19.55;;;10.90;99.90;;;;;;6031764;23;20101;-90
2023/01/07 04:19:20;;;;;;;28.58;20.65;;;10.90;99.90;;;;;;6033137;23;20038;-89
2023/01/07 04:21:46;;;;;;;24.95;20.35;;;10.90;99.90;;;;;;6030556;23;20139;-91
2023/01/07 04:24:12;;;;;;;25.75;19.55;;;10.90;99.90;;;;;;6030502;23;20033;-89
2023/01/07 04:26:38;;;;;;;27.52;19.88;;;10.80;99.90;;;;;;6055877;23;20014;-89
2023/01/07 04:29:03;;;;;;;25.38;20.38;;;10.80;99.90;;;;;;6055340;23;20642;-91
2023/01/07 04:31:29;;;;;;;24.95;19.50;;;10.80;99.90;;;;;;6031856;23;20085;-90
2023/01/07 04:33:55;;;;;;;27.40;20.40;;;10.80;99.90;;;;;;6031898;23;20022;-89
2023/01/07 04:36:22;;;;;;;24.80;19.73;;;10.80;99.90;;;;;;6031022;23;20101;-91
2023/01/07 04:38:47;;;;;;;25.42;18.83;;;10.70;99.90;;;;;;6031212;23;20093;-89
2023/01/07 04:41:13;;;;;;;26.83;19.35;;;10.70;99.90;;;;;;6032609;23;20045;-91
2023/01/07 04:43:39;;;;;;;24.35;18.92;;;10.60;99.90;;;;;;6032251;23;20011;-90
2023/01/07 04:46:04;;;;;;;26.70;19.35;;;10.60;99.90;;;;;;6031857;23;20026;-90
2023/01/07 04:48:30;;;;;;;24.83;19.40;;;10.60;99.90;;;;;;6032112;23;20017;-90
2023/01/07 04:50:56;;;;;;;26.13;18.98;;;10.60;99.90;;;;;;6056008;23;20015;-88
2023/01/07 04:53:22;;;;;;;24.42;19.00;;;10.60;99.90;;;;;;6030252;23;20219;-90
2023/01/07 04:55:47;;;;;;;25.92;19.05;;;10.50;99.90;;;;;;6031705;23;20406;-90
2023/01/07 04:58:13;;;;;;;26.00;17.92;;;10.60;99.90;;;;;;6031849;23;20019;-89
2023/01/07 05:00:39;;;;;;;24.08;19.08;;;10.50;99.90;;;;;;6055991;23;20019;-90
2023/01/07 05:03:04;;;;;;;27.65;18.60;;;10.60;99.90;;;;;;6054558;23;20035;-88
2023/01/07 05:05:30;;;;;;;25.60;18.73;;;10.60;99.90;;;;;;6032591;23;20025;-89
2023/01/07 05:07:55;;;;;;;23.48;17.77;;;10.60;99.90;;;;;;6030419;23;20011;-89
2023/01/07 05:10:21;;;;;;;21.23;17.02;;;10.60;99.90;;;;;;6031542;23;20011;-91
2023/01/07 05:12:49;;;;;;;20.42;16.08;;;10.60;99.90;;;;;;6032513;23;20390;-88
2023/01/07 05:15:15;;;;;;;21.85;17.20;;;10.60;99.90;;;;;;6032116;23;20113;-90
2023/01/07 05:17:41;;;;;;;21.05;16.15;;;10.60;99.90;;;;;;6030473;23;20058;-89
2023/01/07 05:20:07;;;;;;;19.20;16.15;;;10.50;99.90;;;;;;6055223;23;20015;-90
2023/01/07 05:22:33;;;;;;;22.25;15.32;;;10.50;99.90;;;;;;6029530;23;20015;-91
2023/01/07 05:24:59;;;;;;;21.75;16.27;;;10.50;99.90;;;;;;6055030;23;20025;-90
2023/01/07 05:27:24;;;;;;;21.02;15.18;;;10.50;99.90;;;;;;6032221;23;20027;-90
2023/01/07 05:29:50;;;;;;;19.90;14.88;;;10.50;99.90;;;;;;6031381;23;20011;-90
2023/01/07 05:32:16;;;;;;;20.65;16.02;;;10.50;99.90;;;;;;6053663;23;20015;-90
2023/01/07 05:34:41;;;;;;;19.80;15.20;;;10.50;99.90;;;;;;6030809;23;20019;-90
2023/01/07 05:37:07;;;;;;;19.00;14.93;;;10.50;99.90;;;;;;6052680;23;20337;-89
2023/01/07 05:39:33;;;;;;;19.38;14.63;;;10.50;99.90;;;;;;6030775;23;20231;-88
2023/01/07 05:42:01;;;;;;;16.77;14.20;;;10.50;99.90;;;;;;6031170;23;20098;-89
2023/01/07 05:44:27;;;;;;;17.30;14.70;;;10.50;99.90;;;;;;6032768;23;20019;-90
2023/01/07 05:46:53;;;;;;;20.77;14.57;;;10.50;99.90;;;;;;6056884;23;20015;-89
2023/01/07 05:49:21;;;;;;;19.10;13.57;;;10.60;99.90;;;;;;6057770;23;20222;-90
2023/01/07 05:51:47;;;;;;;19.75;14.23;;;10.60;99.90;;;;;;6032460;23;20011;-89
2023/01/07 05:54:12;;;;;;;15.73;13.80;;;10.60;99.90;;;;;;6031688;23;20023;-90
2023/01/07 05:56:38;;;;;;;17.00;13.52;;;10.50;99.90;;;;;;6032933;23;20015;-91
2023/01/07 05:59:04;;;;;;;18.10;13.68;;;10.50;99.90;;;;;;6033326;23;20025;-89
2023/01/07 06:01:29;;;;;;;18.58;13.55;;;10.60;99.90;;;;;;6057226;23;20054;-90
2023/01/07 06:03:55;;;;;;;19.75;13.95;;;10.50;99.90;;;;;;6033910;23;20026;-88
2023/01/07 06:06:28;;;;;;;15.50;13.10;;;10.50;99.90;;;;;;6033412;23;20412;-89
2023/01/07 06:08:54;;;;;;;17.85;13.00;;;10.50;99.90;;;;;;6032581;23;20023;-89
2023/01/07 06:11:19;;;;;;;15.90;12.68;;;10.50;99.90;;;;;;6058078;23;20021;-89
2023/01/07 06:13:45;;;;;;;17.05;13.02;;;10.50;99.90;;;;;;6032289;23;20019;-90
2023/01/07 06:16:12;;;;;;;17.67;12.80;;;10.50;99.90;;;;;;6033398;23;20023;-89
2023/01/07 06:18:38;;;;;;;16.45;12.40;;;10.50;99.90;;;;;;6033340;23;20023;-91
2023/01/07 06:21:04;;;;;;;17.45;13.02;;;10.50;99.90;;;;;;6033632;23;20034;-89
2023/01/07 06:23:30;;;;;;;16.30;12.77;;;10.50;99.90;;;;;;6055471;23;20029;-89
2023/01/07 06:25:56;;;;;;;16.40;12.13;;;10.40;99.90;;;;;;6033591;23;20019;-89
2023/01/07 06:28:21;;;;;;;15.27;11.80;;;10.30;99.90;;;;;;6033039;23;20014;-90
2023/01/07 06:30:47;;;;;;;16.85;12.00;;;10.40;99.90;;;;;;6057664;23;20504;-91
2023/01/07 06:33:14;;;;;;;14.00;11.82;;;10.30;99.90;;;;;;6032654;23;20046;-89
2023/01/07 06:35:40;;;;;;;18.70;12.75;;;10.30;99.90;;;;;;6034888;23;20015;-90
2023/01/07 06:38:06;;;;;;;15.70;11.80;;;10.30;99.90;;;;;;6032309;23;20440;-89
2023/01/07 06:40:34;;;;;;;16.67;11.27;;;10.30;99.90;;;;;;6058423;23;20015;-89
2023/01/07 06:43:00;;;;;;;15.15;12.20;;;10.30;99.90;;;;;;6032938;23;20444;-91
2023/01/07 06:45:26;;;;;;;13.88;11.88;;;10.30;99.90;;;;;;6057254;23;20037;-88
2023/01/07 06:47:51;;;;;;;16.38;11.85;;;10.20;99.90;;;;;;6033343;23;20015;-90
2023/01/07 06:50:17;;;;;;;25.27;12.32;;;10.30;99.90;;;;;;6033906;23;20066;-90
2023/01/07 06:52:43;;;;;;;14.32;11.77;;;10.20;99.90;;;;;;6032145;23;20047;-89
2023/01/07 06:55:09;;;;;;;13.88;11.48;;;10.20;99.90;;;;;;6056635;23;20038;-90
2023/01/07 06:57:38;;;;;;;16.33;12.27;;;10.30;99.90;;;;;;6031741;23;20018;-91
2023/01/07 07:00:04;;;;;;;15.05;11.75;;;10.30;99.90;;;;;;6032336;23;20069;-89
2023/01/07 07:02:30;;;;;;;14.25;11.85;;;10.30;99.90;;;;;;6032442;23;20510;-89
2023/01/07 07:04:55;;;;;;;13.30;10.75;;;10.30;99.90;;;;;;6055690;23;20050;-89
2023/01/07 07:07:21;;;;;;;14.55;11.63;;;10.30;99.90;;;;;;6030557;23;20473;-89
2023/01/07 07:09:49;;;;;;;14.90;11.50;;;10.30;99.90;;;;;;6031630;23;20098;-90
2023/01/07 07:12:15;;;;;;;14.45;11.25;;;10.30;99.90;;;;;;6031521;23;20692;-89
2023/01/07 07:14:41;;;;;;;17.23;11.45;;;10.30;99.90;;;;;;6032260;23;20449;-90
2023/01/07 07:17:07;;;;;;;13.23;11.20;;;10.30;99.90;;;;;;6030464;23;20085;-89
2023/01/07 07:19:33;;;;;;;13.93;10.68;;;10.30;99.90;;;;;;6056260;23;20042;-89
2023/01/07 07:21:59;;;;;;;14.00;10.07;;;10.30;99.90;;;;;;6030332;23;20023;-89
2023/01/07 07:24:24;;;;;;;14.25;10.30;;;10.40;99.90;;;;;;6031323;23;20023;-88
2023/01/07 07:26:50;;;;;;;15.02;10.68;;;10.40;99.90;;;;;;6032130;23;20015;-89
2023/01/07 07:29:16;;;;;;;13.98;10.18;;;10.40;99.90;;;;;;6032077;23;20018;-90
2023/01/07 07:31:42;;;;;;;19.83;10.23;;;10.40;99.90;;;;;;6030715;23;20457;-89
2023/01/07 07:34:10;;;;;;;11.07;9.55;;;10.40;99.90;;;;;;6055324;23;20022;-89
2023/01/07 07:36:36;;;;;;;11.57;9.85;;;10.40;99.90;;;;;;6054922;23;20510;-88
2023/01/07 07:39:03;;;;;;;13.55;9.82;;;10.40;99.90;;;;;;6031092;23;20094;-88
2023/01/07 07:41:30;;;;;;;10.65;8.90;;;10.30;99.90;;;;;;6031490;23;20025;-90
2023/01/07 07:43:56;;;;;;;12.75;9.23;;;10.40;99.90;;;;;;6031077;23;20321;-90
2023/01/07 07:46:21;;;;;;;12.40;9.07;;;10.30;99.90;;;;;;6031576;23;20078;-89
2023/01/07 07:48:48;;;;;;;13.32;9.20;;;10.40;99.90;;;;;;6031354;23;20094;-89
2023/01/07 07:51:14;;;;;;;16.25;9.32;;;10.30;99.90;;;;;;6031115;23;20484;-88
2023/01/07 07:53:40;;;;;;;13.15;9.80;;;10.30;99.90;;;;;;6029085;23;20026;-89
2023/01/07 07:56:07;;;;;;;12.45;9.30;;;10.30;99.90;;;;;;6031283;23;20452;-89
2023/01/07 07:58:32;;;;;;;10.10;8.65;;;10.30;99.90;;;;;;6030864;23;20010;-89
2023/01/07 08:00:58;;;;;;;11.40;9.50;;;10.30;99.90;;;;;;6030965;23;20018;-91
2023/01/07 08:03:24;;;;;;;12.20;8.25;;;10.30;99.90;;;;;;6031103;23;20066;-89
2023/01/07 08:05:52;;;;;;;11.38;8.30;;;10.30;99.90;;;;;;6030752;23;20011;-90
2023/01/07 08:08:18;;;;;;;10.43;8.55;;;10.30;99.90;;;;;;6029043;23;20136;-90
2023/01/07 08:10:44;;;;;;;9.77;8.15;;;10.20;99.90;;;;;;6031117;23;20082;-90
2023/01/07 08:13:10;;;;;;;12.05;8.80;;;10.30;99.90;;;;;;6030493;23;20429;-90
2023/01/07 08:15:36;;;;;;;9.90;7.97;;;10.30;99.90;;;;;;6031222;23;20022;-90
2023/01/07 08:18:05;;;;;;;11.13;8.40;;;10.20;99.90;;;;;;6054066;23;20022;-88
2023/01/07 08:20:34;;;;;;;10.13;7.80;;;10.20;99.90;;;;;;6031342;23;20117;-90
2023/01/07 08:23:01;;;;;;;12.18;7.93;;;10.10;99.90;;;;;;6029030;23;20496;-90
2023/01/07 08:25:28;;;;;;;9.15;7.80;;;10.10;99.90;;;;;;6031291;23;20042;-89
2023/01/07 08:27:55;;;;;;;9.68;6.85;;;10.10;99.90;;;;;;6031200;23;20328;-89
2023/01/07 08:30:21;;;;;;;8.75;6.95;;;10.10;99.90;;;;;;6079231;23;20014;-89
2023/01/07 08:32:50;;;;;;;9.82;7.15;;;10.10;99.90;;;;;;6030170;23;20074;-88
2023/01/07 08:35:16;;;;;;;9.88;7.35;;;10.10;99.90;;;;;;6055070;23;20756;-89
2023/01/07 08:37:42;;;;;;;9.05;6.85;;;10.10;99.90;;;;;;6028720;23;20030;-89
2023/01/07 08:40:09;;;;;;;9.25;6.70;;;10.00;99.90;;;;;;6031380;23;20022;-91
2023/01/07 08:42:34;;;;;;;12.27;7.40;;;10.00;99.90;;;;;;6054417;23;20097;-91
2023/01/07 08:45:00;;;;;;;8.38;6.57;;;10.00;99.90;;;;;;6031831;23;20019;-89
2023/01/07 08:47:26;;;;;;;7.82;6.00;;;10.00;99.90;;;;;;6054379;23;20363;-90
2023/01/07 08:49:55;;;;;;;12.07;6.38;;;10.00;99.90;;;;;;6030549;23;20025;-89
2023/01/07 08:52:22;;;;;;;7.60;6.60;;;10.10;99.90;;;;;;6029662;23;20071;-88
2023/01/07 08:54:48;;;;;;;9.70;6.45;;;10.10;99.90;;;;;;6055797;23;20011;-89
2023/01/07 08:57:14;;;;;;;8.15;6.03;;;10.00;99.90;;;;;;6030922;23;20054;-89
2023/01/07 08:59:40;;;;;;;8.27;5.70;;;10.10;99.90;;;;;;6031493;23;20101;-90
2023/01/07 09:02:14;;;;;;;10.18;5.97;;;10.10;99.90;;;;;;6054039;23;20441;-89
2023/01/07 09:04:40;;;;;;;6.32;5.65;;;10.10;99.90;;;;;;6030694;23;20127;-89
2023/01/07 09:07:06;;;;;;;8.23;5.70;;;10.10;99.90;;;;;;6028768;23;20083;-90
2023/01/07 09:09:32;;;;;;;8.55;5.65;;;10.10;99.90;;;;;;6030572;23;20019;-91
2023/01/07 09:11:57;;;;;;;6.70;5.50;;;10.10;99.90;;;;;;6030130;23;20015;-90
2023/01/07 09:14:26;;;;;;;7.50;5.43;;;10.10;99.90;;;;;;6032363;23;20018;-89
2023/01/07 09:16:51;;;;;;;7.78;5.60;;;10.10;99.90;;;;;;6030674;23;20053;-91
2023/01/07 09:19:17;;;;;;;7.03;5.40;;;10.20;99.90;;;;;;6032198;23;20022;-90
2023/01/07 09:21:43;;;;;;;7.03;5.20;;;10.10;99.90;;;;;;6030771;23;20018;-91
2023/01/07 09:24:08;;;;;;;7.82;5.22;;;10.20;99.90;;;;;;6030556;23;20262;-88
2023/01/07 09:26:34;;;;;;;9.15;5.60;;;10.10;99.90;;;;;;6032072;23;20511;-91
2023/01/07 09:29:00;;;;;;;5.95;5.13;;;10.20;99.90;;;;;;6054031;23;20352;-91
2023/01/07 09:31:25;;;;;;;7.78;5.57;;;10.10;99.90;;;;;;6030897;23;20026;-90
2023/01/07 09:33:51;;;;;;;8.23;5.32;;;10.20;99.90;;;;;;6031457;23;20042;-92
2023/01/07 09:36:19;;;;;;;5.90;5.25;;;10.10;99.90;;;;;;6031485;23;20058;-89
2023/01/07 09:38:45;;;;;;;9.55;5.18;;;10.10;99.90;;;;;;6029790;23;20356;-90
2023/01/07 09:41:20;;;;;;;6.32;5.03;;;10.20;99.90;;;;;;6030424;23;20022;-90
2023/01/07 09:43:52;;;;;;;7.78;5.60;;;10.10;99.90;;;;;;6031089;23;20023;-90
2023/01/07 09:46:18;;;;;;;6.80;5.07;;;10.10;99.90;;;;;;6054701;23;20093;-89
2023/01/07 09:48:50;;;;;;;5.85;4.93;;;10.10;99.90;;;;;;6007435;23;20147;-91
2023/01/07 09:51:26;;;;;;;8.55;5.45;;;10.10;99.90;;;;;;6031449;23;20473;-89
2023/01/07 09:53:55;;;;;;;6.18;5.13;;;10.20;99.90;;;;;;6030135;23;20026;-89
2023/01/07 09:56:31;;;;;;;6.55;4.78;;;10.20;99.90;;;;;;6031558;23;20019;-88
2023/01/07 09:58:59;;;;;;;7.72;5.20;;;10.20;99.90;;;;;;6054658;23;20054;-89
2023/01/07 10:01:53;;;;;;;9.48;5.75;;;10.20;99.90;;;;;;6030507;23;20023;-90
2023/01/07 10:04:38;;;;;;;8.57;5.47;;;10.20;99.90;;;;;;6031135;23;20050;-89
2023/01/07 10:07:37;;;;;;;8.35;4.80;;;10.30;99.90;;;;;;6029006;23;20015;-89
2023/01/07 10:10:17;;;;;;;5.55;4.65;;;10.20;99.90;;;;;;6030670;23;20014;-89
2023/01/07 10:12:51;;;;;;;7.72;4.70;;;10.20;99.90;;;;;;6028566;23;20018;-89
2023/01/07 10:15:31;;;;;;;6.60;4.63;;;10.20;99.90;;;;;;6031412;23;20504;-89
2023/01/07 10:18:19;;;;;;;7.68;4.43;;;10.20;99.90;;;;;;6052674;23;20278;-90
2023/01/07 10:21:11;;;;;;;7.38;4.43;;;10.20;99.90;;;;;;6053633;23;20125;-90
2023/01/07 10:23:45;;;;;;;6.13;4.53;;;10.20;99.90;;;;;;6028786;23;20074;-89
2023/01/07 10:26:34;;;;;;;7.32;4.50;;;10.20;99.90;;;;;;6030285;23;20106;-91
2023/01/07 10:29:23;;;;;;;7.15;4.50;;;10.20;99.90;;;;;;6031832;23;20037;-90
2023/01/07 10:31:51;;;;;;;5.43;4.22;;;10.30;99.90;;;;;;6031467;23;20156;-89
2023/01/07 10:34:25;;;;;;;6.97;4.22;;;10.40;99.90;;;;;;6031567;23;20022;-89
2023/01/07 10:37:12;;;;;;;5.93;3.97;;;10.50;99.90;;;;;;6031028;23;20074;-92
2023/01/07 10:39:58;;;;;;;5.53;4.13;;;10.60;99.90;;;;;;6055582;23;20022;-88
2023/01/07 10:42:37;;;;;;;4.32;3.75;;;10.60;99.90;;;;;;6054046;23;20109;-90
2023/01/07 10:45:20;;;;;;;7.78;4.10;;;10.60;99.90;;;;;;6032222;23;20231;-89
2023/01/07 10:48:14;;;;;;;6.00;4.15;;;10.60;99.90;;;;;;6031066;23;20057;-90
2023/01/07 10:50:42;;;;;;;4.90;3.53;;;10.60;99.90;;;;;;6031315;23;20015;-89
2023/01/07 10:53:36;;;;;;;4.10;3.28;;;10.70;99.90;;;;;;6029702;23;20373;-90
2023/01/07 10:56:16;;;;;;;4.30;3.60;;;10.60;99.90;;;;;;6031034;23;20030;-89
2023/01/07 10:58:47;;;;;;;5.05;3.13;;;10.70;99.90;;;;;;6031855;23;20109;-91
2023/01/07 11:01:27;;;;;;;5.82;3.22;;;10.70;99.90;;;;;;6029507;23;20042;-89
2023/01/07 11:03:56;;;;;;;3.80;3.20;;;10.70;99.90;;;;;;6030763;23;20151;-89
2023/01/07 11:06:28;;;;;;;5.15;3.50;;;10.80;99.90;;;;;;6030362;23;20058;-89
2023/01/07 11:08:54;;;;;;;4.53;3.30;;;10.80;99.90;;;;;;6029392;23;20011;-88
2023/01/07 11:11:22;;;;;;;3.90;3.10;;;10.90;99.90;;;;;;6055640;23;20026;-88
2023/01/07 11:13:59;;;;;;;4.20;2.92;;;10.90;99.90;;;;;;6030142;23;20224;-89
2023/01/07 11:16:32;;;;;;;3.65;3.17;;;10.90;99.90;;;;;;6030201;23;20027;-89
2023/01/07 11:19:05;;;;;;;5.00;2.58;;;11.00;99.90;;;;;;6031103;23;20026;-89
2023/01/07 11:21:43;;;;;;;5.57;2.95;;;11.00;99.90;;;;;;6029329;23;20018;-89
2023/01/07 11:24:26;;;;;;;3.85;2.83;;;11.10;99.90;;;;;;6029480;23;20117;-91
2023/01/07 11:27:00;;;;;;;4.63;2.78;;;11.30;99.90;;;;;;6055196;23;20022;-90
2023/01/07 11:29:41;;;;;;;5.80;2.67;;;11.30;99.90;;;;;;6031916;23;20472;-89
2023/01/07 11:32:26;;;;;;;3.50;2.65;;;11.30;99.90;;;;;;6055558;23;20066;-90
2023/01/07 11:35:17;;;;;;;3.45;2.45;;;11.30;99.90;;;;;;6032685;23;20340;-90
2023/01/07 11:37:47;;;;;;;3.53;2.40;;;11.30;99.90;;;;;;6021043;23;20018;-88
2023/01/07 11:40:13;;;;;;;4.13;2.60;;;11.30;99.90;;;;;;6030849;23;20023;-89
2023/01/07 11:42:55;;;;;;;3.78;2.42;;;11.30;99.90;;;;;;6030503;23;20046;-89
2023/01/07 11:46:03;;;;;;;4.72;2.50;;;11.30;99.90;;;;;;6054626;23;20102;-89
2023/01/07 11:48:34;;;;;;;3.22;2.38;;;11.40;99.90;;;;;;6048783;23;20021;-90
2023/01/07 11:51:10;;;;;;;2.53;2.17;;;11.40;99.90;;;;;;6030868;23;20409;-87
2023/01/07 11:53:45;;;;;;;3.45;2.65;;;11.30;99.90;;;;;;6051114;23;20540;-90
2023/01/07 11:56:20;;;;;;;3.17;2.50;;;11.30;99.90;;;;;;6030566;23;20015;-89
2023/01/07 11:59:10;;;;;;;4.95;2.53;;;11.20;99.90;;;;;;6030972;23;20271;-88
2023/01/07 12:01:46;;;;;;;4.43;2.50;;;11.20;99.90;;;;;;6030004;23;20129;-88
2023/01/07 12:04:21;;;;;;;4.45;2.67;;;11.20;99.90;;;;;;6029507;23;20097;-88
2023/01/07 12:06:48;;;;;;;;;;;11.20;99.90;;;;;;6030589;23;20019;-89
2023/01/07 12:09:17;;;;;;;3.97;2.40;;;11.20;99.90;;;;;;6052897;23;19913;-89
2023/01/07 12:11:46;;;;;;;4.68;2.40;;;11.30;99.90;;;;;;6031748;23;20464;-90
2023/01/07 12:14:15;;;;;;;4.07;2.50;;;11.30;99.90;;;;;;6054481;23;20022;-89
2023/01/07 12:16:44;;;;;;;3.72;2.47;;;11.30;99.90;;;;;;6030255;23;20070;-89
2023/01/07 12:19:18;;;;;;;4.55;2.70;;;11.30;99.90;;;;;;6054425;23;20031;-90
2023/01/07 12:22:10;;;;;;;4.88;2.30;;;11.40;99.90;;;;;;6029755;23;20107;-90
2023/01/07 12:24:41;;;;;;;4.28;2.40;;;11.30;99.90;;;;;;6031230;23;20052;-88
2023/01/07 12:27:25;;;;;;;3.90;2.17;;;11.30;99.90;;;;;;6030420;23;20019;-88
2023/01/07 12:30:07;;;;;;;3.25;2.28;;;11.40;99.90;;;;;;6030817;23;20421;-89
2023/01/07 12:33:02;;;;;;;2.92;1.85;;;11.50;99.90;;;;;;6029306;23;20019;-88
2023/01/07 12:35:34;;;;;;;4.07;2.30;;;11.60;99.90;;;;;;6017327;23;20497;-90
2023/01/07 12:38:18;;;;;;;2.38;1.88;;;11.40;99.90;;;;;;6051736;23;20018;-89
2023/01/07 12:41:04;;;;;;;3.17;2.33;;;11.50;99.90;;;;;;6052888;23;20559;-88
2023/01/07 12:43:41;;;;;;;2.17;1.67;;;11.50;99.90;;;;;;6030861;23;20428;-88
2023/01/07 12:46:12;;;;;;;2.50;1.88;;;11.60;99.90;;;;;;6030987;23;20452;-88
2023/01/07 12:48:56;;;;;;;2.33;1.88;;;11.50;99.90;;;;;;6030002;23;20022;-88
2023/01/07 12:51:33;;;;;;;2.42;1.63;;;11.50;99.90;;;;;;6030585;23;20196;-90
2023/01/07 12:54:09;;;;;;;2.05;1.65;;;11.50;99.90;;;;;;6002958;23;20054;-88
2023/01/07 12:56:49;;;;;;;2.45;1.70;;;11.60;99.90;;;;;;6029584;23;20105;-88
2023/01/07 12:59:18;;;;;;;2.88;2.08;;;11.50;99.90;;;;;;6029685;23;20168;-87